sensor_id;sensor_type;location;lat;lon;timestamp;P1;durP1;ratioP1;P2;durP2;ratioP2
12059;SDS011;6091;51.432;6.880;2023-03-11T00:00:34;0.30;;;0.30;;
12059;SDS011;6091;51.432;6.880;2023-03-11T00:03:04;0.40;;;0.40;;
12059;SDS011;6091;51.432;6.880;2023-03-11T00:05:36;0.30;;;0.30;;
12059;SDS011;6091;51.432;6.880;2023-03-11T00:08:06;0.63;;;0.63;;
12059;SDS011;6091;51.432;6.880;2023-03-11T00:10:39;0.30;;;0.30;;
12059;SDS011;6091;51.432;6.880;2023-03-11T00:13:10;0.30;;;0.30;;
12059;SDS011;6091;51.432;6.880;2023-03-11T00:15:40;0.32;;;0.30;;
12059;SDS011;6091;51.432;6.880;2023-03-11T00:18:09;0.35;;;0.35;;
12059;SDS011;6091;51.432;6.880;2023-03-11T00:20:38;0.40;;;0.40;;
12059;SDS011;6091;51.432;6.880;2023-03-11T00:23:09;0.40;;;0.40;;
12059;SDS011;6091;51.432;6.880;2023-03-11T00:25:38;0.30;;;0.30;;
12059;SDS011;6091;51.432;6.880;2023-03-11T00:28:08;0.25;;;0.25;;
12059;SDS011;6091;51.432;6.880;2023-03-11T00:30:38;0.22;;;0.22;;
12059;SDS011;6091;51.432;6.880;2023-03-11T00:33:07;0.38;;;0.38;;
12059;SDS011;6091;51.432;6.880;2023-03-11T00:35:36;0.35;;;0.35;;
12059;SDS011;6091;51.432;6.880;2023-03-11T00:38:05;0.40;;;0.40;;
12059;SDS011;6091;51.432;6.880;2023-03-11T00:40:34;0.20;;;0.20;;
12059;SDS011;6091;51.432;6.880;2023-03-11T00:43:02;0.30;;;0.30;;
12059;SDS011;6091;51.432;6.880;2023-03-11T00:45:29;0.57;;;0.38;;
12059;SDS011;6091;51.432;6.880;2023-03-11T00:47:57;0.30;;;0.30;;
12059;SDS011;6091;51.432;6.880;2023-03-11T00:50:28;0.35;;;0.35;;
12059;SDS011;6091;51.432;6.880;2023-03-11T00:52:58;0.30;;;0.30;;
12059;SDS011;6091;51.432;6.880;2023-03-11T00:55:28;0.40;;;0.40;;
12059;SDS011;6091;51.432;6.880;2023-03-11T00:57:59;0.40;;;0.40;;
12059;SDS011;6091;51.432;6.880;2023-03-11T01:00:33;0.40;;;0.40;;
12059;SDS011;6091;51.432;6.880;2023-03-11T01:03:00;0.40;;;0.40;;
12059;SDS011;6091;51.432;6.880;2023-03-11T01:05:29;0.30;;;0.30;;
12059;SDS011;6091;51.432;6.880;2023-03-11T01:07:59;0.40;;;0.40;;
12059;SDS011;6091;51.432;6.880;2023-03-11T01:10:28;0.30;;;0.30;;
12059;SDS011;6091;51.432;6.880;2023-03-11T01:13:00;0.40;;;0.40;;
12059;SDS011;6091;51.432;6.880;2023-03-11T01:15:29;0.40;;;0.40;;
12059;SDS011;6091;51.432;6.880;2023-03-11T01:18:03;0.40;;;0.30;;
12059;SDS011;6091;51.432;6.880;2023-03-11T01:20:31;0.30;;;0.30;;
12059;SDS011;6091;51.432;6.880;2023-03-11T01:22:59;0.40;;;0.40;;
12059;SDS011;6091;51.432;6.880;2023-03-11T01:25:26;0.30;;;0.30;;
12059;SDS011;6091;51.432;6.880;2023-03-11T01:27:54;0.35;;;0.35;;
12059;SDS011;6091;51.432;6.880;2023-03-11T01:30:22;0.40;;;0.40;;
12059;SDS011;6091;51.432;6.880;2023-03-11T01:32:51;0.30;;;0.30;;
12059;SDS011;6091;51.432;6.880;2023-03-11T01:35:21;0.40;;;0.40;;
12059;SDS011;6091;51.432;6.880;2023-03-11T01:37:50;0.35;;;0.35;;
12059;SDS011;6091;51.432;6.880;2023-03-11T01:42:58;0.32;;;0.32;;
12059;SDS011;6091;51.432;6.880;2023-03-11T01:47:58;0.50;;;0.50;;
12059;SDS011;6091;51.432;6.880;2023-03-11T01:50:26;0.40;;;0.40;;
12059;SDS011;6091;51.432;6.880;2023-03-11T01:53:02;0.40;;;0.40;;
12059;SDS011;6091;51.432;6.880;2023-03-11T01:55:31;0.32;;;0.32;;
12059;SDS011;6091;51.432;6.880;2023-03-11T01:57:59;0.30;;;0.30;;
12059;SDS011;6091;51.432;6.880;2023-03-11T02:00:32;0.40;;;0.40;;
12059;SDS011;6091;51.432;6.880;2023-03-11T02:03:05;0.35;;;0.35;;
12059;SDS011;6091;51.432;6.880;2023-03-11T02:05:46;0.68;;;0.40;;
12059;SDS011;6091;51.432;6.880;2023-03-11T02:08:18;0.32;;;0.32;;
12059;SDS011;6091;51.432;6.880;2023-03-11T02:10:45;0.40;;;0.40;;
12059;SDS011;6091;51.432;6.880;2023-03-11T02:13:15;0.40;;;0.40;;
12059;SDS011;6091;51.432;6.880;2023-03-11T02:15:43;0.40;;;0.40;;
12059;SDS011;6091;51.432;6.880;2023-03-11T02:18:11;0.30;;;0.30;;
12059;SDS011;6091;51.432;6.880;2023-03-11T02:21:00;0.30;;;0.30;;
12059;SDS011;6091;51.432;6.880;2023-03-11T02:23:48;0.50;;;0.50;;
12059;SDS011;6091;51.432;6.880;2023-03-11T02:29:13;0.63;;;0.40;;
12059;SDS011;6091;51.432;6.880;2023-03-11T02:31:41;0.30;;;0.30;;
12059;SDS011;6091;51.432;6.880;2023-03-11T02:34:12;0.50;;;0.50;;
12059;SDS011;6091;51.432;6.880;2023-03-11T02:36:48;0.38;;;0.38;;
12059;SDS011;6091;51.432;6.880;2023-03-11T02:39:15;0.30;;;0.30;;
12059;SDS011;6091;51.432;6.880;2023-03-11T02:41:53;0.40;;;0.40;;
12059;SDS011;6091;51.432;6.880;2023-03-11T02:44:20;0.30;;;0.30;;
12059;SDS011;6091;51.432;6.880;2023-03-11T02:46:48;0.30;;;0.30;;
12059;SDS011;6091;51.432;6.880;2023-03-11T02:49:15;0.30;;;0.30;;
12059;SDS011;6091;51.432;6.880;2023-03-11T02:51:42;0.30;;;0.30;;
12059;SDS011;6091;51.432;6.880;2023-03-11T02:54:09;0.40;;;0.40;;
12059;SDS011;6091;51.432;6.880;2023-03-11T02:56:36;0.40;;;0.40;;
12059;SDS011;6091;51.432;6.880;2023-03-11T02:59:03;0.40;;;0.40;;
12059;SDS011;6091;51.432;6.880;2023-03-11T03:01:31;0.40;;;0.40;;
12059;SDS011;6091;51.432;6.880;2023-03-11T03:03:58;0.30;;;0.30;;
12059;SDS011;6091;51.432;6.880;2023-03-11T03:06:25;0.30;;;0.30;;
12059;SDS011;6091;51.432;6.880;2023-03-11T03:08:54;0.38;;;0.38;;
12059;SDS011;6091;51.432;6.880;2023-03-11T03:11:21;0.35;;;0.35;;
12059;SDS011;6091;51.432;6.880;2023-03-11T03:13:48;0.30;;;0.30;;
12059;SDS011;6091;51.432;6.880;2023-03-11T03:16:15;0.50;;;0.40;;
12059;SDS011;6091;51.432;6.880;2023-03-11T03:18:42;0.35;;;0.35;;
12059;SDS011;6091;51.432;6.880;2023-03-11T03:21:09;0.40;;;0.40;;
12059;SDS011;6091;51.432;6.880;2023-03-11T03:23:36;0.50;;;0.35;;
12059;SDS011;6091;51.432;6.880;2023-03-11T03:26:04;0.45;;;0.45;;
12059;SDS011;6091;51.432;6.880;2023-03-11T03:28:31;0.40;;;0.40;;
12059;SDS011;6091;51.432;6.880;2023-03-11T03:31:02;0.30;;;0.30;;
12059;SDS011;6091;51.432;6.880;2023-03-11T03:33:32;0.25;;;0.25;;
12059;SDS011;6091;51.432;6.880;2023-03-11T03:35:59;0.45;;;0.45;;
12059;SDS011;6091;51.432;6.880;2023-03-11T03:38:30;0.40;;;0.40;;
12059;SDS011;6091;51.432;6.880;2023-03-11T03:40:57;0.40;;;0.40;;
12059;SDS011;6091;51.432;6.880;2023-03-11T03:43:24;0.32;;;0.32;;
12059;SDS011;6091;51.432;6.880;2023-03-11T03:45:58;0.68;;;0.47;;
12059;SDS011;6091;51.432;6.880;2023-03-11T03:48:28;0.30;;;0.30;;
12059;SDS011;6091;51.432;6.880;2023-03-11T03:50:56;0.30;;;0.30;;
12059;SDS011;6091;51.432;6.880;2023-03-11T03:53:28;0.68;;;0.50;;
12059;SDS011;6091;51.432;6.880;2023-03-11T03:55:56;0.50;;;0.50;;
12059;SDS011;6091;51.432;6.880;2023-03-11T03:58:23;0.52;;;0.40;;
12059;SDS011;6091;51.432;6.880;2023-03-11T04:00:53;0.43;;;0.43;;
12059;SDS011;6091;51.432;6.880;2023-03-11T04:03:22;0.52;;;0.52;;
12059;SDS011;6091;51.432;6.880;2023-03-11T04:05:51;0.40;;;0.38;;
12059;SDS011;6091;51.432;6.880;2023-03-11T04:08:19;0.40;;;0.40;;
12059;SDS011;6091;51.432;6.880;2023-03-11T04:10:54;0.35;;;0.35;;
12059;SDS011;6091;51.432;6.880;2023-03-11T04:13:22;0.30;;;0.30;;
12059;SDS011;6091;51.432;6.880;2023-03-11T04:15:49;0.57;;;0.57;;
12059;SDS011;6091;51.432;6.880;2023-03-11T04:18:16;0.40;;;0.40;;
12059;SDS011;6091;51.432;6.880;2023-03-11T04:20:43;0.30;;;0.30;;
12059;SDS011;6091;51.432;6.880;2023-03-11T04:23:11;0.45;;;0.40;;
12059;SDS011;6091;51.432;6.880;2023-03-11T04:25:38;0.40;;;0.40;;
12059;SDS011;6091;51.432;6.880;2023-03-11T04:28:05;0.40;;;0.40;;
12059;SDS011;6091;51.432;6.880;2023-03-11T04:30:32;0.32;;;0.32;;
12059;SDS011;6091;51.432;6.880;2023-03-11T04:32:59;0.32;;;0.32;;
12059;SDS011;6091;51.432;6.880;2023-03-11T04:35:26;0.40;;;0.30;;
12059;SDS011;6091;51.432;6.880;2023-03-11T04:37:53;0.30;;;0.30;;
12059;SDS011;6091;51.432;6.880;2023-03-11T04:40:20;0.43;;;0.40;;
12059;SDS011;6091;51.432;6.880;2023-03-11T04:42:47;0.50;;;0.50;;
12059;SDS011;6091;51.432;6.880;2023-03-11T04:45:14;0.40;;;0.40;;
12059;SDS011;6091;51.432;6.880;2023-03-11T04:47:46;0.40;;;0.40;;
12059;SDS011;6091;51.432;6.880;2023-03-11T04:50:15;0.40;;;0.40;;
12059;SDS011;6091;51.432;6.880;2023-03-11T04:52:43;0.60;;;0.47;;
12059;SDS011;6091;51.432;6.880;2023-03-11T04:55:11;0.45;;;0.40;;
12059;SDS011;6091;51.432;6.880;2023-03-11T04:57:39;0.40;;;0.40;;
12059;SDS011;6091;51.432;6.880;2023-03-11T05:00:09;0.40;;;0.40;;
12059;SDS011;6091;51.432;6.880;2023-03-11T05:02:38;0.40;;;0.40;;
12059;SDS011;6091;51.432;6.880;2023-03-11T05:05:07;0.40;;;0.40;;
12059;SDS011;6091;51.432;6.880;2023-03-11T05:07:35;0.40;;;0.40;;
12059;SDS011;6091;51.432;6.880;2023-03-11T05:10:03;0.35;;;0.30;;
12059;SDS011;6091;51.432;6.880;2023-03-11T05:12:31;0.50;;;0.50;;
12059;SDS011;6091;51.432;6.880;2023-03-11T05:14:58;0.30;;;0.30;;
12059;SDS011;6091;51.432;6.880;2023-03-11T05:17:25;0.50;;;0.45;;
12059;SDS011;6091;51.432;6.880;2023-03-11T05:19:52;0.30;;;0.30;;
12059;SDS011;6091;51.432;6.880;2023-03-11T05:22:19;0.50;;;0.50;;
12059;SDS011;6091;51.432;6.880;2023-03-11T05:24:46;0.50;;;0.50;;
12059;SDS011;6091;51.432;6.880;2023-03-11T05:27:14;0.40;;;0.40;;
12059;SDS011;6091;51.432;6.880;2023-03-11T05:29:43;0.38;;;0.38;;
12059;SDS011;6091;51.432;6.880;2023-03-11T05:32:10;0.47;;;0.47;;
12059;SDS011;6091;51.432;6.880;2023-03-11T05:34:38;0.40;;;0.40;;
12059;SDS011;6091;51.432;6.880;2023-03-11T05:37:06;0.40;;;0.40;;
12059;SDS011;6091;51.432;6.880;2023-03-11T05:39:33;0.40;;;0.40;;
12059;SDS011;6091;51.432;6.880;2023-03-11T05:42:03;0.40;;;0.40;;
12059;SDS011;6091;51.432;6.880;2023-03-11T05:44:31;0.40;;;0.40;;
12059;SDS011;6091;51.432;6.880;2023-03-11T05:46:59;0.40;;;0.40;;
12059;SDS011;6091;51.432;6.880;2023-03-11T05:49:27;0.60;;;0.60;;
12059;SDS011;6091;51.432;6.880;2023-03-11T05:51:54;0.40;;;0.40;;
12059;SDS011;6091;51.432;6.880;2023-03-11T05:54:23;0.40;;;0.40;;
12059;SDS011;6091;51.432;6.880;2023-03-11T05:56:51;0.40;;;0.40;;
12059;SDS011;6091;51.432;6.880;2023-03-11T05:59:18;0.40;;;0.40;;
12059;SDS011;6091;51.432;6.880;2023-03-11T06:01:45;0.40;;;0.40;;
12059;SDS011;6091;51.432;6.880;2023-03-11T06:04:12;0.40;;;0.40;;
12059;SDS011;6091;51.432;6.880;2023-03-11T06:06:39;0.38;;;0.38;;
12059;SDS011;6091;51.432;6.880;2023-03-11T06:09:10;0.45;;;0.40;;
12059;SDS011;6091;51.432;6.880;2023-03-11T06:11:39;0.30;;;0.30;;
12059;SDS011;6091;51.432;6.880;2023-03-11T06:14:09;0.28;;;0.28;;
12059;SDS011;6091;51.432;6.880;2023-03-11T06:16:39;0.50;;;0.40;;
12059;SDS011;6091;51.432;6.880;2023-03-11T06:19:07;0.50;;;0.40;;
12059;SDS011;6091;51.432;6.880;2023-03-11T06:21:38;0.30;;;0.30;;
12059;SDS011;6091;51.432;6.880;2023-03-11T06:24:05;0.30;;;0.30;;
12059;SDS011;6091;51.432;6.880;2023-03-11T06:26:32;0.35;;;0.35;;
12059;SDS011;6091;51.432;6.880;2023-03-11T06:28:59;0.40;;;0.40;;
12059;SDS011;6091;51.432;6.880;2023-03-11T06:31:27;0.35;;;0.35;;
12059;SDS011;6091;51.432;6.880;2023-03-11T06:33:58;0.90;;;0.40;;
12059;SDS011;6091;51.432;6.880;2023-03-11T06:36:25;0.40;;;0.40;;
12059;SDS011;6091;51.432;6.880;2023-03-11T06:38:52;0.30;;;0.30;;
12059;SDS011;6091;51.432;6.880;2023-03-11T06:41:20;0.40;;;0.40;;
12059;SDS011;6091;51.432;6.880;2023-03-11T06:43:47;0.30;;;0.30;;
12059;SDS011;6091;51.432;6.880;2023-03-11T06:46:15;0.30;;;0.30;;
12059;SDS011;6091;51.432;6.880;2023-03-11T06:48:46;0.32;;;0.30;;
12059;SDS011;6091;51.432;6.880;2023-03-11T06:51:18;0.40;;;0.40;;
12059;SDS011;6091;51.432;6.880;2023-03-11T06:53:47;0.40;;;0.40;;
12059;SDS011;6091;51.432;6.880;2023-03-11T06:56:17;0.85;;;0.40;;
12059;SDS011;6091;51.432;6.880;2023-03-11T06:58:46;0.40;;;0.30;;
12059;SDS011;6091;51.432;6.880;2023-03-11T07:03:47;0.38;;;0.38;;
12059;SDS011;6091;51.432;6.880;2023-03-11T07:06:17;0.40;;;0.40;;
12059;SDS011;6091;51.432;6.880;2023-03-11T07:08:50;0.30;;;0.30;;
12059;SDS011;6091;51.432;6.880;2023-03-11T07:11:20;0.35;;;0.35;;
12059;SDS011;6091;51.432;6.880;2023-03-11T07:13:52;0.28;;;0.28;;
12059;SDS011;6091;51.432;6.880;2023-03-11T07:16:24;0.40;;;0.40;;
12059;SDS011;6091;51.432;6.880;2023-03-11T07:18:54;0.30;;;0.30;;
12059;SDS011;6091;51.432;6.880;2023-03-11T07:21:26;0.40;;;0.40;;
12059;SDS011;6091;51.432;6.880;2023-03-11T07:23:56;0.30;;;0.30;;
12059;SDS011;6091;51.432;6.880;2023-03-11T07:26:26;0.40;;;0.40;;
12059;SDS011;6091;51.432;6.880;2023-03-11T07:28:55;0.45;;;0.45;;
12059;SDS011;6091;51.432;6.880;2023-03-11T07:31:24;0.40;;;0.40;;
12059;SDS011;6091;51.432;6.880;2023-03-11T07:33:59;0.40;;;0.40;;
12059;SDS011;6091;51.432;6.880;2023-03-11T07:36:29;0.30;;;0.30;;
12059;SDS011;6091;51.432;6.880;2023-03-11T07:39:01;0.30;;;0.30;;
12059;SDS011;6091;51.432;6.880;2023-03-11T07:41:31;0.35;;;0.35;;
12059;SDS011;6091;51.432;6.880;2023-03-11T07:44:00;0.80;;;0.40;;
12059;SDS011;6091;51.432;6.880;2023-03-11T07:46:29;0.30;;;0.30;;
12059;SDS011;6091;51.432;6.880;2023-03-11T07:48:57;0.52;;;0.50;;
12059;SDS011;6091;51.432;6.880;2023-03-11T07:51:27;0.50;;;0.45;;
12059;SDS011;6091;51.432;6.880;2023-03-11T07:53:57;0.50;;;0.40;;
12059;SDS011;6091;51.432;6.880;2023-03-11T07:56:27;0.40;;;0.40;;
12059;SDS011;6091;51.432;6.880;2023-03-11T07:58:58;0.40;;;0.40;;
12059;SDS011;6091;51.432;6.880;2023-03-11T08:01:29;0.30;;;0.30;;
12059;SDS011;6091;51.432;6.880;2023-03-11T08:04:03;0.25;;;0.25;;
12059;SDS011;6091;51.432;6.880;2023-03-11T08:06:32;0.40;;;0.40;;
12059;SDS011;6091;51.432;6.880;2023-03-11T08:09:04;0.57;;;0.40;;
12059;SDS011;6091;51.432;6.880;2023-03-11T08:11:34;0.40;;;0.35;;
12059;SDS011;6091;51.432;6.880;2023-03-11T08:14:02;0.50;;;0.50;;
12059;SDS011;6091;51.432;6.880;2023-03-11T08:16:30;0.38;;;0.38;;
12059;SDS011;6091;51.432;6.880;2023-03-11T08:18:57;0.45;;;0.40;;
12059;SDS011;6091;51.432;6.880;2023-03-11T08:21:25;0.28;;;0.28;;
12059;SDS011;6091;51.432;6.880;2023-03-11T08:23:58;0.30;;;0.30;;
12059;SDS011;6091;51.432;6.880;2023-03-11T08:26:27;0.30;;;0.30;;
12059;SDS011;6091;51.432;6.880;2023-03-11T08:28:56;0.40;;;0.30;;
12059;SDS011;6091;51.432;6.880;2023-03-11T08:31:25;0.30;;;0.30;;
12059;SDS011;6091;51.432;6.880;2023-03-11T08:33:57;0.40;;;0.40;;
12059;SDS011;6091;51.432;6.880;2023-03-11T08:36:28;0.35;;;0.35;;
12059;SDS011;6091;51.432;6.880;2023-03-11T08:38:56;0.32;;;0.32;;
12059;SDS011;6091;51.432;6.880;2023-03-11T08:41:24;0.30;;;0.30;;
12059;SDS011;6091;51.432;6.880;2023-03-11T08:43:52;0.30;;;0.30;;
12059;SDS011;6091;51.432;6.880;2023-03-11T08:46:30;0.45;;;0.35;;
12059;SDS011;6091;51.432;6.880;2023-03-11T08:49:01;0.30;;;0.30;;
12059;SDS011;6091;51.432;6.880;2023-03-11T08:51:30;0.38;;;0.38;;
12059;SDS011;6091;51.432;6.880;2023-03-11T08:53:59;0.40;;;0.40;;
12059;SDS011;6091;51.432;6.880;2023-03-11T08:56:27;0.50;;;0.50;;
12059;SDS011;6091;51.432;6.880;2023-03-11T08:58:54;0.40;;;0.40;;
12059;SDS011;6091;51.432;6.880;2023-03-11T09:01:21;0.30;;;0.30;;
12059;SDS011;6091;51.432;6.880;2023-03-11T09:03:49;0.45;;;0.45;;
12059;SDS011;6091;51.432;6.880;2023-03-11T09:06:16;0.40;;;0.40;;
12059;SDS011;6091;51.432;6.880;2023-03-11T09:08:47;0.40;;;0.40;;
12059;SDS011;6091;51.432;6.880;2023-03-11T09:11:15;0.70;;;0.50;;
12059;SDS011;6091;51.432;6.880;2023-03-11T09:13:43;1.08;;;0.45;;
12059;SDS011;6091;51.432;6.880;2023-03-11T09:16:11;1.45;;;0.50;;
12059;SDS011;6091;51.432;6.880;2023-03-11T09:18:41;2.13;;;0.60;;
12059;SDS011;6091;51.432;6.880;2023-03-11T09:21:09;0.68;;;0.60;;
12059;SDS011;6091;51.432;6.880;2023-03-11T09:23:36;1.35;;;0.77;;
12059;SDS011;6091;51.432;6.880;2023-03-11T09:26:07;2.47;;;0.80;;
12059;SDS011;6091;51.432;6.880;2023-03-11T09:28:34;2.03;;;0.70;;
12059;SDS011;6091;51.432;6.880;2023-03-11T09:31:01;0.85;;;0.75;;
12059;SDS011;6091;51.432;6.880;2023-03-11T09:33:28;1.63;;;0.60;;
12059;SDS011;6091;51.432;6.880;2023-03-11T09:35:56;0.52;;;0.43;;
12059;SDS011;6091;51.432;6.880;2023-03-11T09:38:24;1.40;;;0.40;;
12059;SDS011;6091;51.432;6.880;2023-03-11T09:54:42;2.92;;;0.80;;
12059;SDS011;6091;51.432;6.880;2023-03-11T09:57:27;1.92;;;0.65;;
12059;SDS011;6091;51.432;6.880;2023-03-11T09:59:59;2.60;;;0.63;;
12059;SDS011;6091;51.432;6.880;2023-03-11T10:02:31;0.60;;;0.60;;
12059;SDS011;6091;51.432;6.880;2023-03-11T10:07:39;0.90;;;0.45;;
12059;SDS011;6091;51.432;6.880;2023-03-11T10:10:12;0.68;;;0.50;;
12059;SDS011;6091;51.432;6.880;2023-03-11T10:15:34;2.25;;;0.63;;
12059;SDS011;6091;51.432;6.880;2023-03-11T10:22:01;1.08;;;0.55;;
12059;SDS011;6091;51.432;6.880;2023-03-11T10:27:48;0.40;;;0.40;;
12059;SDS011;6091;51.432;6.880;2023-03-11T10:33:23;0.75;;;0.60;;
12059;SDS011;6091;51.432;6.880;2023-03-11T10:35:53;1.45;;;0.60;;
12059;SDS011;6091;51.432;6.880;2023-03-11T10:40:59;0.65;;;0.47;;
12059;SDS011;6091;51.432;6.880;2023-03-11T10:43:43;0.40;;;0.40;;
12059;SDS011;6091;51.432;6.880;2023-03-11T10:46:18;0.47;;;0.40;;
12059;SDS011;6091;51.432;6.880;2023-03-11T10:48:51;0.60;;;0.50;;
12059;SDS011;6091;51.432;6.880;2023-03-11T10:51:21;0.60;;;0.60;;
12059;SDS011;6091;51.432;6.880;2023-03-11T10:53:53;0.43;;;0.43;;
12059;SDS011;6091;51.432;6.880;2023-03-11T10:56:38;0.30;;;0.30;;
12059;SDS011;6091;51.432;6.880;2023-03-11T10:59:23;0.30;;;0.30;;
12059;SDS011;6091;51.432;6.880;2023-03-11T11:02:00;0.30;;;0.30;;
12059;SDS011;6091;51.432;6.880;2023-03-11T11:05:03;0.52;;;0.40;;
12059;SDS011;6091;51.432;6.880;2023-03-11T11:07:46;0.88;;;0.50;;
12059;SDS011;6091;51.432;6.880;2023-03-11T11:10:33;1.63;;;0.50;;
12059;SDS011;6091;51.432;6.880;2023-03-11T11:15:40;0.40;;;0.40;;
12059;SDS011;6091;51.432;6.880;2023-03-11T11:21:01;0.73;;;0.50;;
12059;SDS011;6091;51.432;6.880;2023-03-11T11:23:42;0.93;;;0.40;;
12059;SDS011;6091;51.432;6.880;2023-03-11T11:31:43;0.38;;;0.38;;
12059;SDS011;6091;51.432;6.880;2023-03-11T11:34:31;0.50;;;0.50;;
12059;SDS011;6091;51.432;6.880;2023-03-11T11:37:03;0.95;;;0.40;;
12059;SDS011;6091;51.432;6.880;2023-03-11T11:39:35;0.50;;;0.40;;
12059;SDS011;6091;51.432;6.880;2023-03-11T11:42:19;1.27;;;0.50;;
12059;SDS011;6091;51.432;6.880;2023-03-11T11:44:48;0.77;;;0.32;;
12059;SDS011;6091;51.432;6.880;2023-03-11T11:47:23;1.45;;;0.43;;
12059;SDS011;6091;51.432;6.880;2023-03-11T11:50:00;1.80;;;0.38;;
12059;SDS011;6091;51.432;6.880;2023-03-11T11:52:45;1.40;;;0.50;;
12059;SDS011;6091;51.432;6.880;2023-03-11T11:55:23;1.65;;;0.40;;
12059;SDS011;6091;51.432;6.880;2023-03-11T11:57:53;0.45;;;0.40;;
12059;SDS011;6091;51.432;6.880;2023-03-11T12:00:23;0.43;;;0.43;;
12059;SDS011;6091;51.432;6.880;2023-03-11T12:03:18;0.40;;;0.40;;
12059;SDS011;6091;51.432;6.880;2023-03-11T12:05:57;1.65;;;0.50;;
12059;SDS011;6091;51.432;6.880;2023-03-11T12:08:50;0.93;;;0.60;;
12059;SDS011;6091;51.432;6.880;2023-03-11T12:17:06;0.82;;;0.45;;
12059;SDS011;6091;51.432;6.880;2023-03-11T12:22:37;1.67;;;0.60;;
12059;SDS011;6091;51.432;6.880;2023-03-11T12:25:34;0.82;;;0.60;;
12059;SDS011;6091;51.432;6.880;2023-03-11T12:31:04;0.60;;;0.60;;
12059;SDS011;6091;51.432;6.880;2023-03-11T12:33:40;0.40;;;0.40;;
12059;SDS011;6091;51.432;6.880;2023-03-11T12:39:06;1.83;;;0.60;;
12059;SDS011;6091;51.432;6.880;2023-03-11T12:41:45;0.50;;;0.50;;
12059;SDS011;6091;51.432;6.880;2023-03-11T12:44:26;2.35;;;0.73;;
12059;SDS011;6091;51.432;6.880;2023-03-11T12:49:32;0.93;;;0.60;;
12059;SDS011;6091;51.432;6.880;2023-03-11T12:54:41;0.65;;;0.60;;
12059;SDS011;6091;51.432;6.880;2023-03-11T13:08:49;1.15;;;1.00;;
12059;SDS011;6091;51.432;6.880;2023-03-11T13:11:25;0.60;;;0.60;;
12059;SDS011;6091;51.432;6.880;2023-03-11T13:14:43;0.90;;;0.70;;
12059;SDS011;6091;51.432;6.880;2023-03-11T13:17:42;1.08;;;0.70;;
12059;SDS011;6091;51.432;6.880;2023-03-11T13:19:56;0.50;;;0.50;;
12059;SDS011;6091;51.432;6.880;2023-03-11T13:25:28;1.95;;;0.70;;
12059;SDS011;6091;51.432;6.880;2023-03-11T13:33:53;1.02;;;0.60;;
12059;SDS011;6091;51.432;6.880;2023-03-11T13:42:36;0.70;;;0.70;;
12059;SDS011;6091;51.432;6.880;2023-03-11T13:45:36;0.85;;;0.70;;
12059;SDS011;6091;51.432;6.880;2023-03-11T13:50:50;1.17;;;0.70;;
12059;SDS011;6091;51.432;6.880;2023-03-11T13:54:03;2.70;;;0.98;;
12059;SDS011;6091;51.432;6.880;2023-03-11T13:56:54;3.33;;;0.60;;
12059;SDS011;6091;51.432;6.880;2023-03-11T13:59:32;1.80;;;1.13;;
12059;SDS011;6091;51.432;6.880;2023-03-11T14:04:34;1.63;;;0.60;;
12059;SDS011;6091;51.432;6.880;2023-03-11T14:12:45;1.60;;;0.77;;
12059;SDS011;6091;51.432;6.880;2023-03-11T14:17:45;0.60;;;0.50;;
12059;SDS011;6091;51.432;6.880;2023-03-11T14:22:51;0.85;;;0.60;;
12059;SDS011;6091;51.432;6.880;2023-03-11T14:25:25;1.27;;;0.50;;
12059;SDS011;6091;51.432;6.880;2023-03-11T14:27:57;3.28;;;0.57;;
12059;SDS011;6091;51.432;6.880;2023-03-11T14:30:28;0.55;;;0.55;;
12059;SDS011;6091;51.432;6.880;2023-03-11T14:33:03;1.40;;;0.60;;
12059;SDS011;6091;51.432;6.880;2023-03-11T14:35:54;1.95;;;1.20;;
12059;SDS011;6091;51.432;6.880;2023-03-11T14:38:29;3.30;;;1.60;;
12059;SDS011;6091;51.432;6.880;2023-03-11T14:40:58;4.38;;;1.48;;
12059;SDS011;6091;51.432;6.880;2023-03-11T14:43:33;2.25;;;0.90;;
12059;SDS011;6091;51.432;6.880;2023-03-11T14:46:07;2.42;;;0.80;;
12059;SDS011;6091;51.432;6.880;2023-03-11T14:48:43;4.95;;;1.15;;
12059;SDS011;6091;51.432;6.880;2023-03-11T14:51:13;1.10;;;0.80;;
12059;SDS011;6091;51.432;6.880;2023-03-11T14:53:56;0.90;;;0.70;;
12059;SDS011;6091;51.432;6.880;2023-03-11T14:56:43;6.82;;;0.98;;
12059;SDS011;6091;51.432;6.880;2023-03-11T14:59:26;1.58;;;0.85;;
12059;SDS011;6091;51.432;6.880;2023-03-11T15:02:08;2.58;;;1.20;;
12059;SDS011;6091;51.432;6.880;2023-03-11T15:05:38;1.92;;;0.80;;
12059;SDS011;6091;51.432;6.880;2023-03-11T15:08:20;1.02;;;0.70;;
12059;SDS011;6091;51.432;6.880;2023-03-11T15:11:02;1.00;;;0.80;;
12059;SDS011;6091;51.432;6.880;2023-03-11T15:13:31;1.20;;;0.57;;
12059;SDS011;6091;51.432;6.880;2023-03-11T15:16:01;3.22;;;0.70;;
12059;SDS011;6091;51.432;6.880;2023-03-11T15:18:35;0.90;;;0.60;;
12059;SDS011;6091;51.432;6.880;2023-03-11T15:21:14;1.20;;;0.70;;
12059;SDS011;6091;51.432;6.880;2023-03-11T15:23:48;0.70;;;0.57;;
12059;SDS011;6091;51.432;6.880;2023-03-11T15:26:27;1.80;;;0.70;;
12059;SDS011;6091;51.432;6.880;2023-03-11T15:29:03;2.00;;;0.80;;
12059;SDS011;6091;51.432;6.880;2023-03-11T15:31:43;0.95;;;0.70;;
12059;SDS011;6091;51.432;6.880;2023-03-11T15:39:16;1.25;;;0.80;;
12059;SDS011;6091;51.432;6.880;2023-03-11T15:41:56;0.60;;;0.60;;
12059;SDS011;6091;51.432;6.880;2023-03-11T15:46:57;0.75;;;0.70;;
12059;SDS011;6091;51.432;6.880;2023-03-11T15:49:26;1.20;;;0.80;;
12059;SDS011;6091;51.432;6.880;2023-03-11T15:52:01;1.02;;;0.60;;
12059;SDS011;6091;51.432;6.880;2023-03-11T15:54:28;0.40;;;0.40;;
12059;SDS011;6091;51.432;6.880;2023-03-11T15:56:56;0.52;;;0.52;;
12059;SDS011;6091;51.432;6.880;2023-03-11T15:59:27;0.55;;;0.50;;
12059;SDS011;6091;51.432;6.880;2023-03-11T16:01:55;0.73;;;0.68;;
12059;SDS011;6091;51.432;6.880;2023-03-11T16:04:24;1.13;;;0.50;;
12059;SDS011;6091;51.432;6.880;2023-03-11T16:06:52;0.43;;;0.40;;
12059;SDS011;6091;51.432;6.880;2023-03-11T16:09:33;0.73;;;0.50;;
12059;SDS011;6091;51.432;6.880;2023-03-11T16:12:00;0.80;;;0.52;;
12059;SDS011;6091;51.432;6.880;2023-03-11T16:14:34;0.60;;;0.52;;
12059;SDS011;6091;51.432;6.880;2023-03-11T16:17:01;0.47;;;0.45;;
12059;SDS011;6091;51.432;6.880;2023-03-11T16:19:28;0.52;;;0.50;;
12059;SDS011;6091;51.432;6.880;2023-03-11T16:21:55;0.50;;;0.50;;
12059;SDS011;6091;51.432;6.880;2023-03-11T16:24:22;1.05;;;0.55;;
12059;SDS011;6091;51.432;6.880;2023-03-11T16:26:51;0.50;;;0.50;;
12059;SDS011;6091;51.432;6.880;2023-03-11T16:29:19;0.47;;;0.47;;
12059;SDS011;6091;51.432;6.880;2023-03-11T16:31:48;0.50;;;0.50;;
12059;SDS011;6091;51.432;6.880;2023-03-11T16:34:15;0.40;;;0.40;;
12059;SDS011;6091;51.432;6.880;2023-03-11T16:36:42;0.65;;;0.47;;
12059;SDS011;6091;51.432;6.880;2023-03-11T16:39:09;0.57;;;0.52;;
12059;SDS011;6091;51.432;6.880;2023-03-11T16:41:39;0.55;;;0.47;;
12059;SDS011;6091;51.432;6.880;2023-03-11T16:44:09;0.50;;;0.50;;
12059;SDS011;6091;51.432;6.880;2023-03-11T16:46:37;0.63;;;0.50;;
12059;SDS011;6091;51.432;6.880;2023-03-11T16:49:04;0.63;;;0.60;;
12059;SDS011;6091;51.432;6.880;2023-03-11T16:51:31;1.25;;;0.60;;
12059;SDS011;6091;51.432;6.880;2023-03-11T16:53:59;0.47;;;0.47;;
12059;SDS011;6091;51.432;6.880;2023-03-11T16:56:26;0.60;;;0.60;;
12059;SDS011;6091;51.432;6.880;2023-03-11T16:58:53;0.43;;;0.43;;
12059;SDS011;6091;51.432;6.880;2023-03-11T17:01:20;0.93;;;0.47;;
12059;SDS011;6091;51.432;6.880;2023-03-11T17:03:51;0.57;;;0.52;;
12059;SDS011;6091;51.432;6.880;2023-03-11T17:06:18;0.75;;;0.50;;
12059;SDS011;6091;51.432;6.880;2023-03-11T17:08:49;0.50;;;0.50;;
12059;SDS011;6091;51.432;6.880;2023-03-11T17:11:18;1.00;;;0.50;;
12059;SDS011;6091;51.432;6.880;2023-03-11T17:13:51;0.40;;;0.40;;
12059;SDS011;6091;51.432;6.880;2023-03-11T17:16:20;0.68;;;0.52;;
12059;SDS011;6091;51.432;6.880;2023-03-11T17:18:47;0.40;;;0.40;;
12059;SDS011;6091;51.432;6.880;2023-03-11T17:21:15;0.52;;;0.40;;
12059;SDS011;6091;51.432;6.880;2023-03-11T17:23:43;0.57;;;0.55;;
12059;SDS011;6091;51.432;6.880;2023-03-11T17:26:14;0.63;;;0.57;;
12059;SDS011;6091;51.432;6.880;2023-03-11T17:28:42;0.52;;;0.45;;